Time;durP1;ratioP1;P1;durP2;ratioP2;P2;SDS_P1;SDS_P2;PMS_P1;PMS_P2;Temp;Humidity;BMP_temperature;BMP_pressure;BME280_temperature;BME280_humidity;BME280_pressure;Samples;Min_cycle;Max_cycle;Signal;HPM_P1;HPM_P2
2023/06/27 00:01:09;;;;;;;2.60;2.60;;;;;;;-141.02;100.00;107971.50;5092073;28;20273;-59
2023/06/27 00:03:36;;;;;;;2.90;2.90;;;;;;;-141.02;100.00;107971.50;5092065;28;20652;-58
2023/06/27 00:13:16;;;;;;;2.70;2.70;;;;;;;-141.02;100.00;107971.50;5091705;28;20205;-59
2023/06/27 00:16:32;;;;;;;2.70;2.70;;;;;;;-141.02;100.00;107971.50;5049879;28;20195;-58
2023/06/27 00:26:20;;;;;;;3.10;3.10;;;;;;;-141.02;100.00;107971.50;5009907;28;20208;-63
2023/06/27 00:28:48;;;;;;;3.13;3.13;;;;;;;-141.02;100.00;107971.50;5009548;28;20196;-59
2023/06/27 00:31:38;;;;;;;3.15;3.15;;;;;;;-141.02;100.00;107971.50;5009555;28;20204;-58
2023/06/27 00:34:05;;;;;;;3.40;3.40;;;;;;;-141.02;100.00;107971.50;5028605;28;20265;-59
2023/06/27 00:36:35;;;;;;;3.60;3.50;;;;;;;-141.02;100.00;107971.50;5049376;28;20570;-62
2023/06/27 00:39:02;;;;;;;4.00;3.90;;;;;;;-141.02;100.00;107971.50;5052808;28;20211;-61
2023/06/27 00:41:29;;;;;;;4.00;3.90;;;;;;;-141.02;100.00;107971.50;5087236;28;20265;-59
2023/06/27 00:43:58;;;;;;;4.47;4.38;;;;;;;-141.02;100.00;107971.50;5093004;28;20197;-59
2023/06/27 00:46:35;;;;;;;5.20;5.10;;;;;;;-141.02;100.00;107971.50;5092942;28;20194;-58
2023/06/27 00:49:02;;;;;;;6.00;5.90;;;;;;;-141.02;100.00;107971.50;5092889;28;20189;-58
2023/06/27 00:51:29;;;;;;;5.60;5.50;;;;;;;-141.02;100.00;107971.50;5093071;28;20255;-58
2023/06/27 00:53:57;;;;;;;5.60;5.50;;;;;;;-141.02;100.00;107971.50;5092742;28;20707;-58
2023/06/27 00:56:26;;;;;;;5.97;5.88;;;;;;;-141.02;100.00;107971.50;5092841;28;20197;-60
2023/06/27 00:58:54;;;;;;;6.50;6.30;;;;;;;-141.02;100.00;107971.50;5092700;28;20282;-61
2023/06/27 01:01:22;;;;;;;6.80;6.60;;;;;;;-141.02;100.00;107971.50;5092639;28;20816;-59
2023/06/27 01:03:50;;;;;;;7.30;7.10;;;;;;;-141.02;100.00;107971.50;5123869;27;20200;-59
2023/06/27 01:06:25;;;;;;;7.80;7.60;;;;;;;-141.02;100.00;107971.50;5135743;27;20283;-58
2023/06/27 01:09:00;;;;;;;7.75;7.55;;;;;;;-141.02;100.00;107971.50;5135593;27;20192;-59
2023/06/27 01:11:33;;;;;;;8.00;7.80;;;;;;;-141.02;100.00;107971.50;5135788;27;20184;-59
2023/06/27 01:14:03;;;;;;;8.40;8.20;;;;;;;-141.02;100.00;107971.50;5135429;27;20222;-59
2023/06/27 01:16:34;;;;;;;8.70;8.50;;;;;;;-141.02;100.00;107971.50;5135885;27;20249;-59
2023/06/27 01:19:02;;;;;;;8.27;8.07;;;;;;;-141.02;100.00;107969.53;5135679;27;20288;-58
2023/06/27 01:21:31;;;;;;;8.00;7.80;;;;;;;-141.02;100.00;107971.50;5135492;27;20597;-58
2023/06/27 01:24:02;;;;;;;7.80;7.60;;;;;;;-141.02;100.00;107971.50;5135325;27;20662;-60
2023/06/27 01:26:30;;;;;;;7.53;7.32;;;;;;;-141.02;100.00;107971.50;5135511;27;20189;-59
2023/06/27 01:28:57;;;;;;;7.00;6.80;;;;;;;-141.02;100.00;107971.50;5135144;27;20698;-58
2023/06/27 01:31:28;;;;;;;6.80;6.60;;;;;;;-141.02;100.00;107971.50;5135411;27;20192;-58
2023/06/27 01:34:02;;;;;;;6.80;6.60;;;;;;;-141.02;100.00;107971.50;5135252;27;20205;-59
2023/06/27 01:36:36;;;;;;;7.55;7.35;;;;;;;-141.02;100.00;107971.50;5135064;27;20642;-59
2023/06/27 01:39:08;;;;;;;6.80;6.60;;;;;;;-141.02;100.00;107971.50;5134962;27;20184;-58
2023/06/27 01:41:38;;;;;;;6.80;6.60;;;;;;;-141.02;100.00;107971.50;5134889;27;20231;-60
2023/06/27 01:44:10;;;;;;;8.20;8.00;;;;;;;-141.02;100.00;107971.50;5135124;27;20189;-59
2023/06/27 01:46:39;;;;;;;9.60;9.30;;;;;;;-141.02;100.00;107969.53;5135121;27;20184;-58
2023/06/27 01:49:06;;;;;;;10.13;9.82;;;;;;;-141.02;100.00;107719.09;5134918;27;20192;-59
2023/06/27 01:51:33;;;;;;;9.70;9.40;;;;;;;-141.02;100.00;107719.09;5134679;27;20205;-58
2023/06/27 01:54:00;;;;;;;9.77;9.48;;;;;;;-141.02;100.00;107719.09;5134835;27;20250;-59
2023/06/27 01:56:28;;;;;;;9.40;9.10;;;;;;;-141.02;100.00;107719.09;5134636;27;20283;-59
2023/06/27 01:58:55;;;;;;;8.70;8.50;;;;;;;-141.02;100.00;107969.53;5134840;27;20199;-59
2023/06/27 02:01:22;;;;;;;9.45;9.15;;;;;;;-141.02;100.00;107719.09;5134687;27;20224;-58
2023/06/27 02:03:49;;;;;;;9.65;9.35;;;;;;;-141.02;100.00;107719.09;5134454;27;20288;-58
2023/06/27 02:06:16;;;;;;;9.65;9.35;;;;;;;-141.02;100.00;107719.09;5134698;27;20571;-58
2023/06/27 02:08:44;;;;;;;8.70;8.50;;;;;;;-141.02;100.00;107719.09;5134354;27;20708;-59
2023/06/27 02:12:03;;;;;;;8.30;8.10;;;;;;;-141.02;100.00;107719.09;5134540;27;20193;-58
2023/06/27 02:14:31;;;;;;;8.35;8.15;;;;;;;-141.02;100.00;107719.09;5134033;27;20572;-59
2023/06/27 02:17:44;;;;;;;7.65;7.45;;;;;;;-141.02;100.00;107969.53;5134508;27;20196;-61
2023/06/27 02:20:11;;;;;;;7.40;7.20;;;;;;;-141.02;100.00;107969.53;5134199;27;20196;-59
2023/06/27 02:22:38;;;;;;;7.10;6.90;;;;;;;-141.02;100.00;107969.53;5134010;27;20203;-59
2023/06/27 02:31:50;;;;;;;8.35;8.15;;;;;;;-141.02;100.00;107969.53;5134201;27;20549;-59
2023/06/27 02:35:06;;;;;;;9.02;8.73;;;;;;;-141.02;100.00;107719.09;5133792;27;20260;-59
2023/06/27 02:37:33;;;;;;;9.48;9.18;;;;;;;-141.02;100.00;107468.69;5133826;27;20279;-60
2023/06/27 02:43:22;;;;;;;10.50;10.20;;;;;;;-141.02;100.00;107468.69;5133786;27;20265;-59
2023/06/27 02:46:42;;;;;;;10.65;10.25;;;;;;;-141.02;100.00;107468.69;5132554;27;20228;-60
2023/06/27 02:49:11;;;;;;;10.77;10.38;;;;;;;-141.02;100.00;107719.09;5133902;27;20188;-65
2023/06/27 02:51:39;;;;;;;10.48;10.18;;;;;;;-141.02;100.00;107468.69;5133910;27;20217;-59
2023/06/27 02:54:06;;;;;;;10.18;9.88;;;;;;;-141.02;100.00;107719.09;5133759;27;20227;-59
2023/06/27 02:56:33;;;;;;;9.60;9.30;;;;;;;-141.02;100.00;107969.53;5133507;27;20193;-59
2023/06/27 02:58:59;;;;;;;9.68;9.38;;;;;;;-141.02;100.00;107969.53;5133426;27;20198;-66
2023/06/27 03:01:26;;;;;;;9.45;9.15;;;;;;;-141.02;100.00;107969.53;5133018;27;20653;-59
2023/06/27 03:03:56;;;;;;;8.50;8.30;;;;;;;-141.02;100.00;107971.50;5133365;27;20202;-60
2023/06/27 03:06:25;;;;;;;9.18;8.88;;;;;;;-141.02;100.00;107971.50;5133568;27;20197;-60
2023/06/27 03:12:24;;;;;;;8.75;8.45;;;;;;;-141.02;100.00;107971.50;5133389;27;20244;-59
2023/06/27 03:15:37;;;;;;;9.90;9.60;;;;;;;-141.02;100.00;107971.50;5133501;27;20310;-65
2023/06/27 03:18:04;;;;;;;10.27;9.98;;;;;;;-141.02;100.00;107971.50;5133182;27;20192;-59
2023/06/27 03:20:31;;;;;;;9.98;9.68;;;;;;;-141.02;100.00;107971.50;5133407;27;20276;-60
2023/06/27 03:23:00;;;;;;;10.05;9.75;;;;;;;-141.02;100.00;107971.50;5133124;27;20201;-58
2023/06/27 03:29:23;;;;;;;8.40;8.20;;;;;;;-141.02;100.00;107971.50;5133014;27;20275;-58
2023/06/27 03:31:51;;;;;;;9.20;8.90;;;;;;;-141.02;100.00;107971.50;5132918;28;20199;-60
2023/06/27 03:34:18;;;;;;;9.85;9.55;;;;;;;-141.02;100.00;107971.50;5133224;28;20224;-58
2023/06/27 03:36:45;;;;;;;11.00;10.60;;;;;;;-141.02;100.00;107971.50;5133251;27;20196;-59
2023/06/27 03:39:13;;;;;;;12.07;11.68;;;;;;;-141.02;100.00;107971.50;5133241;28;20247;-58
2023/06/27 03:41:40;;;;;;;13.70;13.10;;;;;;;-141.02;100.00;107969.53;5132780;27;20224;-59
2023/06/27 03:44:08;;;;;;;14.90;14.10;;;;;;;-141.02;100.00;107468.69;5133206;28;20227;-60
2023/06/27 03:46:35;;;;;;;15.90;15.00;;;;;;;-141.02;100.00;106717.56;5133101;28;20261;-59
2023/06/27 03:49:02;;;;;;;15.98;15.07;;;;;;;-141.02;100.00;106216.91;5133035;28;20196;-59
2023/06/27 03:51:29;;;;;;;15.57;14.68;;;;;;;-141.02;100.00;105716.31;5133667;27;20199;-59
2023/06/27 03:53:56;;;;;;;16.23;15.23;;;;;;;-141.02;100.00;104965.56;5132642;28;20764;-59
2023/06/27 03:56:24;;;;;;;16.17;15.07;;;;;;;-141.02;100.00;104715.34;5133157;28;20287;-59
2023/06/27 03:58:52;;;;;;;16.65;15.45;;;;;;;-141.02;100.00;104214.97;5133022;28;20214;-59
2023/06/27 04:01:19;;;;;;;17.08;15.88;;;;;;;-141.02;100.00;103964.81;5132675;27;20231;-59
2023/06/27 04:03:46;;;;;;;16.85;15.65;;;;;;;-141.02;100.00;103714.66;5133055;27;20261;-60
2023/06/27 04:06:13;;;;;;;17.58;16.27;;;;;;;-141.02;100.00;103464.53;5132611;28;20577;-59
2023/06/27 04:08:40;;;;;;;17.80;16.40;;;;;;;-141.02;100.00;103464.53;5132710;27;20188;-59
2023/06/27 04:11:13;;;;;;;18.05;16.65;;;;;;;-141.02;100.00;102964.34;5132634;27;20188;-59
2023/06/27 04:13:41;;;;;;;19.58;17.92;;;;;;;-141.02;100.00;102214.16;5136585;27;20279;-59
2023/06/27 04:16:08;;;;;;;19.88;18.13;;;;;;;-141.02;100.00;100964.25;5136616;27;20672;-59
2023/06/27 04:18:35;;;;;;;20.95;19.05;;;;;;;-141.02;96.80;97966.31;5136547;27;20283;-59
2023/06/27 04:21:05;;;;;;;20.38;18.58;;;;;;;-141.02;95.10;96717.94;5136833;27;20197;-58
2023/06/27 04:23:32;;;;;;;19.95;18.05;;;;;;;-141.02;100.00;97466.91;5136367;27;20199;-59
2023/06/27 04:26:07;;;;;;;19.83;17.92;;;;;;;-141.02;100.00;97217.22;5136434;27;20203;-59
2023/06/27 04:31:57;;;;;;;20.75;18.65;;;;;;;-141.02;96.61;96717.94;5136423;27;20207;-64
2023/06/27 04:34:24;;;;;;;21.23;19.13;;;;;;;-141.02;91.00;95969.13;5136437;27;20224;-59
2023/06/27 04:36:51;;;;;;;20.98;18.88;;;;;;;-141.02;89.85;95969.13;5136139;27;20283;-59
2023/06/27 04:39:18;;;;;;;21.35;19.15;;;;;;;-141.02;91.12;95470.00;5136484;27;20275;-62
2023/06/27 04:41:45;;;;;;;20.92;18.83;;;;;;;-141.02;93.36;95220.47;5135882;27;20311;-59
2023/06/27 04:44:12;;;;;;;20.77;18.67;;;;;;;-141.02;94.38;95220.47;5136112;27;20678;-59
2023/06/27 04:46:39;;;;;;;20.73;18.73;;;;;;;-141.02;94.55;95220.47;5135918;27;20271;-59
2023/06/27 04:49:07;;;;;;;20.40;18.40;;;;;;;-141.02;95.81;95220.47;5136224;27;20246;-60
2023/06/27 04:51:34;;;;;;;20.42;18.52;;;;;;;-141.02;94.23;95220.47;5135960;27;20214;-59
2023/06/27 04:54:01;;;;;;;20.38;18.38;;;;;;;-141.02;94.27;94970.94;5135776;27;20785;-60
2023/06/27 04:56:28;;;;;;;20.40;18.50;;;;;;;-141.02;92.30;95470.00;5136165;27;20271;-59
2023/06/27 04:58:55;;;;;;;20.52;18.52;;;;;;;-141.02;93.55;94970.94;5136592;27;20207;-60
2023/06/27 05:01:22;;;;;;;20.63;18.63;;;;;;;-141.02;93.70;95220.47;5136779;27;20634;-60
2023/06/27 05:03:49;;;;;;;20.60;18.60;;;;;;;-141.02;92.09;94970.94;5135795;27;20711;-63
2023/06/27 05:06:18;;;;;;;19.95;18.13;;;;;;;-141.02;94.68;94222.50;5135596;27;20235;-64
2023/06/27 05:08:45;;;;;;;19.23;17.52;;;;;;;-141.02;97.93;94471.97;5135905;27;20193;-67
2023/06/27 05:11:12;;;;;;;19.00;17.30;;;;;;;-141.02;100.00;94721.44;5135614;27;20188;-59
2023/06/27 05:13:40;;;;;;;18.88;17.27;;;;;;;-141.02;100.00;94721.44;5136183;27;20199;-59
2023/06/27 05:16:10;;;;;;;19.13;17.48;;;;;;;-141.02;100.00;94721.44;5135740;27;20310;-61
2023/06/27 05:18:41;;;;;;;19.00;17.40;;;;;;;-141.02;100.00;95470.00;5135343;27;20733;-58
2023/06/27 05:21:11;;;;;;;19.00;17.40;;;;;;;-141.02;100.00;94970.94;5135760;27;20192;-58
2023/06/27 05:23:43;;;;;;;19.00;17.40;;;;;;;-141.02;100.00;95220.47;5134919;27;20288;-59
2023/06/27 05:26:11;;;;;;;18.40;16.90;;;;;;;-141.02;100.00;94970.94;5135298;27;20199;-65
2023/06/27 05:28:40;;;;;;;18.38;16.88;;;;;;;-141.02;100.00;95220.47;5135154;27;20279;-73
2023/06/27 05:31:10;;;;;;;17.27;15.98;;;;;;;-141.02;100.00;95719.53;5135149;27;20672;-59
2023/06/27 05:33:40;;;;;;;17.85;16.45;;;;;;;-141.02;100.00;95470.00;5135367;27;20283;-59
2023/06/27 05:36:10;;;;;;;18.40;16.90;;;;;;;-141.02;100.00;95220.47;5135071;27;20716;-73
2023/06/27 05:38:42;;;;;;;19.20;17.63;;;;;;;-141.02;100.00;94970.94;5135019;27;20284;-60
2023/06/27 05:41:10;;;;;;;18.80;17.20;;;;;;;-141.02;100.00;94721.44;5134739;27;20315;-60
2023/06/27 05:43:43;;;;;;;18.13;16.63;;;;;;;-141.02;100.00;94721.44;5134944;27;20288;-59
2023/06/27 05:46:10;;;;;;;18.52;17.02;;;;;;;-141.02;100.00;95470.00;5134903;27;20228;-61
2023/06/27 05:48:40;;;;;;;19.38;17.67;;;;;;;-141.02;100.00;95220.47;5135184;27;20203;-58
2023/06/27 05:51:11;;;;;;;21.00;19.20;;;;;;;-141.02;100.00;95220.47;5134987;27;20283;-61
2023/06/27 05:53:42;;;;;;;19.23;17.52;;;;;;;-141.02;100.00;94721.44;5134707;27;20661;-59
2023/06/27 05:56:10;;;;;;;18.40;16.90;;;;;;;-141.02;100.00;95220.47;5134504;27;20224;-59
2023/06/27 05:58:40;;;;;;;19.23;17.63;;;;;;;-141.02;100.00;95719.53;5134625;27;20616;-67
2023/06/27 06:01:07;;;;;;;18.35;16.85;;;;;;;-141.02;100.00;95470.00;5134532;27;20235;-59
2023/06/27 06:03:43;;;;;;;18.80;17.20;;;;;;;-141.02;100.00;95719.53;5134797;27;20197;-65
2023/06/27 06:06:11;;;;;;;17.80;16.40;;;;;;;-141.02;100.00;95969.13;5134681;27;20191;-59
2023/06/27 06:08:45;;;;;;;18.48;16.98;;;;;;;-141.02;100.00;95719.53;5134417;27;20193;-59
2023/06/27 06:11:13;;;;;;;19.13;17.52;;;;;;;-141.02;100.00;95969.13;5134906;27;20195;-59
2023/06/27 06:13:41;;;;;;;18.95;17.35;;;;;;;-141.02;100.00;95220.47;5134658;27;20279;-61
2023/06/27 06:16:11;;;;;;;19.15;17.55;;;;;;;-141.02;100.00;95719.53;5134249;27;20235;-61
2023/06/27 06:18:41;;;;;;;18.98;17.38;;;;;;;-141.02;100.00;94970.94;5134273;27;20199;-59
2023/06/27 06:21:14;;;;;;;17.92;16.52;;;;;;;-141.02;100.00;94970.94;5134464;27;20198;-59
2023/06/27 06:23:42;;;;;;;18.48;16.98;;;;;;;-141.02;100.00;95470.00;5134415;27;20279;-63
2023/06/27 06:26:13;;;;;;;18.67;17.08;;;;;;;-141.02;100.00;94721.44;5134037;27;20658;-63
2023/06/27 06:28:42;;;;;;;19.30;17.60;;;;;;;-141.02;100.00;94970.94;5133963;27;20283;-72
2023/06/27 06:31:14;;;;;;;20.20;18.40;;;;;;;-141.02;100.00;95470.00;5133983;27;20188;-65
2023/06/27 06:33:42;;;;;;;19.38;17.67;;;;;;;-141.02;100.00;95719.53;5134207;27;20241;-58
2023/06/27 06:36:11;;;;;;;19.40;17.70;;;;;;;-141.02;100.00;94970.94;5133048;27;20228;-58
2023/06/27 06:38:44;;;;;;;20.00;18.15;;;;;;;-141.02;100.00;94970.94;5134071;27;20199;-58
2023/06/27 06:41:14;;;;;;;19.70;17.90;;;;;;;-141.02;100.00;94970.94;5133682;27;20311;-59
2023/06/27 06:43:42;;;;;;;20.08;18.27;;;;;;;-141.02;100.00;95220.47;5134021;27;20192;-59
2023/06/27 06:46:11;;;;;;;19.70;17.95;;;;;;;-141.02;100.00;95719.53;5134017;27;20275;-63
2023/06/27 06:48:45;;;;;;;20.75;18.85;;;;;;;-141.02;100.00;95220.47;5133956;27;20244;-58
2023/06/27 06:51:13;;;;;;;20.50;18.60;;;;;;;-141.02;100.00;95220.47;5133888;27;20245;-59
2023/06/27 06:53:43;;;;;;;21.42;19.38;;;;;;;-141.02;99.22;95220.47;5133581;27;20232;-59
2023/06/27 06:56:14;;;;;;;21.15;19.15;;;;;;;-141.02;97.79;95470.00;5133730;27;20311;-60
2023/06/27 06:58:42;;;;;;;21.30;19.20;;;;;;;-141.02;96.04;95470.00;5133459;27;20770;-59
2023/06/27 07:01:15;;;;;;;20.30;18.40;;;;;;;-141.02;99.44;95719.53;5133750;27;20224;-64
2023/06/27 07:03:42;;;;;;;19.85;17.95;;;;;;;-141.02;98.61;94721.44;5133711;27;20280;-60
2023/06/27 07:06:15;;;;;;;19.70;18.00;;;;;;;-141.02;100.00;94471.97;5133627;27;20271;-59
2023/06/27 07:08:43;;;;;;;18.77;17.17;;;;;;;-141.02;100.00;95220.47;5133562;27;20231;-65
2023/06/27 07:11:12;;;;;;;18.85;17.23;;;;;;;-141.02;100.00;95719.53;5133501;27;20275;-58
2023/06/27 07:13:43;;;;;;;19.42;17.63;;;;;;;-141.02;100.00;96218.69;5133582;27;20220;-59
2023/06/27 07:16:12;;;;;;;19.27;17.48;;;;;;;-141.02;98.83;96967.56;5133183;27;20718;-59
2023/06/27 07:18:42;;;;;;;20.92;18.83;;;;;;;-141.02;92.59;95470.00;5133207;27;20287;-58
2023/06/27 07:21:12;;;;;;;20.38;18.38;;;;;;;-141.02;93.90;95719.53;5133432;27;20275;-58
2023/06/27 07:23:39;;;;;;;21.67;19.48;;;;;;;-141.02;89.67;95220.47;5133064;27;20287;-59
2023/06/27 07:26:12;;;;;;;22.48;20.17;;;;;;;-141.02;91.59;95969.13;5133445;27;20195;-59
2023/06/27 07:28:44;;;;;;;22.80;20.40;;;;;;;-141.02;90.40;95220.47;5133387;27;20192;-59
2023/06/27 07:31:13;;;;;;;21.63;19.42;;;;;;;-141.02;90.75;95220.47;5133328;27;20188;-60
2023/06/27 07:33:39;;;;;;;23.23;20.83;;;;;;;-141.02;89.27;94471.97;5133239;28;20188;-60
2023/06/27 07:36:06;;;;;;;23.55;21.15;;;;;;;-141.02;89.79;94471.97;5132912;28;20687;-59
2023/06/27 07:38:33;;;;;;;23.63;21.13;;;;;;;-141.02;86.36;94471.97;5133228;28;20271;-58
2023/06/27 07:41:00;;;;;;;22.80;20.42;;;;;;;-141.02;89.09;95220.47;5132847;28;20262;-58
2023/06/27 07:43:27;;;;;;;23.17;20.67;;;;;;;-141.02;85.75;94721.44;5133233;28;20207;-59
2023/06/27 07:45:56;;;;;;;22.25;19.95;;;;;;;-141.02;85.67;94970.94;5133662;27;20742;-59
2023/06/27 07:48:23;;;;;;;22.05;19.85;;;;;;;-141.02;85.96;95719.53;5137441;27;20203;-59
2023/06/27 07:50:50;;;;;;;23.13;20.73;;;;;;;-141.02;83.58;94471.97;5137101;27;20203;-59
2023/06/27 07:53:17;;;;;;;22.45;20.05;;;;;;;-141.02;85.19;94471.97;5137324;27;20196;-58
2023/06/27 07:55:46;;;;;;;23.48;20.92;;;;;;;-141.02;80.23;93723.63;5137260;27;20224;-58
2023/06/27 07:58:16;;;;;;;23.25;20.75;;;;;;;-141.02;84.46;94970.94;5137273;27;20192;-61
2023/06/27 08:00:46;;;;;;;23.70;21.10;;;;;;;-141.02;79.19;94970.94;5137258;27;20625;-59
2023/06/27 08:03:18;;;;;;;24.88;21.85;;;;;;;-141.02;73.72;93723.63;5136841;27;20192;-58
2023/06/27 08:05:46;;;;;;;24.40;21.70;;;;;;;-141.02;76.45;92975.47;5136783;27;20666;-59
2023/06/27 08:08:16;;;;;;;25.80;22.10;;;;;;;-141.02;76.98;93474.22;5136737;27;20712;-59
2023/06/27 08:10:47;;;;;;;24.13;21.52;;;;;;;-141.02;77.49;93474.22;5137136;27;20286;-60
2023/06/27 08:13:16;;;;;;;25.25;21.95;;;;;;;-141.02;77.84;93474.22;5136665;27;20192;-63
2023/06/27 08:15:45;;;;;;;25.67;21.90;;;;;;;-141.02;75.76;92726.13;5136863;27;20660;-58
2023/06/27 08:18:17;;;;;;;25.15;21.63;;;;;;;-141.02;74.89;92476.78;5136909;27;20222;-58
2023/06/27 08:20:44;;;;;;;25.25;22.25;;;;;;;-141.02;76.08;93723.63;5136597;27;20726;-59
2023/06/27 08:23:11;;;;;;;24.50;21.63;;;;;;;-141.02;74.63;93973.06;5136778;27;20192;-59
2023/06/27 08:25:38;;;;;;;25.25;21.92;;;;;;;-141.02;73.84;92975.47;5136991;27;20232;-61
2023/06/27 08:28:05;;;;;;;24.63;21.92;;;;;;;-141.02;77.32;93723.63;5136748;27;20192;-61
2023/06/27 08:30:32;;;;;;;26.45;23.13;;;;;;;-141.02;74.38;92476.78;5136649;27;20222;-59
2023/06/27 08:32:59;;;;;;;25.40;21.98;;;;;;;-141.02;73.43;92975.47;5136239;27;20193;-59
2023/06/27 08:35:27;;;;;;;25.63;22.92;;;;;;;-141.02;75.83;92476.78;5136104;27;20690;-59
2023/06/27 08:37:54;;;;;;;24.23;21.48;;;;;;;-141.02;79.67;92726.13;5136251;27;20385;-59
2023/06/27 08:40:25;;;;;;;24.50;21.73;;;;;;;-141.02;77.61;92476.78;5136135;27;20223;-60
2023/06/27 08:42:52;;;;;;;24.85;22.00;;;;;;;-141.02;77.06;93474.22;5136459;27;20216;-61
2023/06/27 08:45:19;;;;;;;25.77;22.17;;;;;;;-141.02;73.75;92975.47;5136468;27;20243;-62
2023/06/27 08:47:47;;;;;;;24.80;21.90;;;;;;;-141.02;73.67;91230.38;5135961;27;20288;-58
2023/06/27 08:50:15;;;;;;;25.33;22.15;;;;;;;-141.02;75.37;90233.56;5136005;27;20283;-58
2023/06/27 08:52:46;;;;;;;25.85;22.92;;;;;;;-141.02;73.93;90731.94;5136280;27;20224;-58
2023/06/27 08:55:21;;;;;;;25.95;23.15;;;;;;;-141.02;75.62;91978.16;5135847;27;20271;-58
2023/06/27 08:57:48;;;;;;;25.55;22.52;;;;;;;-141.02;71.98;91230.38;5135071;27;20180;-58
2023/06/27 09:00:22;;;;;;;26.05;22.60;;;;;;;-141.02;73.23;90233.56;5136018;27;20192;-67
2023/06/27 09:02:50;;;;;;;24.95;21.88;;;;;;;-141.02;73.98;91230.38;5136102;27;20195;-58
2023/06/27 09:05:17;;;;;;;26.95;22.77;;;;;;;-141.02;67.80;89486.16;5135938;27;20198;-63
2023/06/27 09:07:45;;;;;;;25.80;22.10;;;;;;;-141.02;70.49;90233.56;5135951;27;20192;-58
2023/06/27 09:10:14;;;;;;;27.00;22.67;;;;;;;-141.02;68.59;89486.16;5135809;27;20195;-58
2023/06/27 09:12:43;;;;;;;26.60;22.25;;;;;;;-141.02;66.99;88240.81;5135500;27;20553;-66
2023/06/27 09:15:11;;;;;;;26.65;22.38;;;;;;;-141.02;68.25;88738.88;5135302;27;20280;-58
2023/06/27 09:17:39;;;;;;;27.45;22.98;;;;;;;-141.02;64.24;85005.03;5135701;27;20199;-59
2023/06/27 09:20:07;;;;;;;26.70;22.63;;;;;;;-141.02;62.42;85502.66;5135777;27;20632;-62
2023/06/27 09:22:36;;;;;;;27.27;22.95;;;;;;;-141.02;65.82;86249.22;5135579;27;20245;-58
2023/06/27 09:25:15;;;;;;;26.63;22.45;;;;;;;-141.02;63.57;84507.50;5135618;27;20226;-60
2023/06/27 09:27:43;;;;;;;26.23;21.85;;;;;;;-141.02;63.00;85502.66;5135711;27;20188;-58
2023/06/27 09:30:11;;;;;;;25.73;22.25;;;;;;;-141.02;63.43;84507.50;5135457;27;20200;-62
2023/06/27 09:32:53;;;;;;;27.23;22.85;;;;;;;-141.02;64.14;84258.75;5135052;27;20643;-58
2023/06/27 09:35:21;;;;;;;26.35;22.33;;;;;;;-141.02;62.21;84507.50;5135416;27;20220;-69
2023/06/27 09:37:48;;;;;;;27.40;23.00;;;;;;;-141.02;62.76;84756.25;5135298;27;20193;-59
2023/06/27 09:40:20;;;;;;;27.85;23.20;;;;;;;-141.02;61.55;84258.75;5134794;27;20228;-58
2023/06/27 09:42:52;;;;;;;28.02;23.27;;;;;;;-141.02;57.42;82269.47;5134880;27;20249;-58
2023/06/27 09:45:19;;;;;;;27.95;23.33;;;;;;;-141.02;58.67;83761.31;5135229;27;20371;-58
2023/06/27 09:47:48;;;;;;;28.23;23.27;;;;;;;-141.02;53.92;81523.75;5135016;27;20275;-59
2023/06/27 09:50:18;;;;;;;28.55;24.10;;;;;;;-141.02;53.39;81523.75;5134826;27;20704;-58
2023/06/27 09:52:53;;;;;;;29.35;25.15;;;;;;;-141.02;53.79;79536.03;5135033;27;20192;-59
2023/06/27 09:55:22;;;;;;;28.30;24.20;;;;;;;-141.02;52.64;77549.47;5134670;27;20187;-59
2023/06/27 09:57:49;;;;;;;29.20;24.48;;;;;;;-141.02;56.04;74323.72;5134887;27;20192;-71
2023/06/27 10:00:20;;;;;;;29.52;25.30;;;;;;;-141.02;55.08;73083.88;5134976;27;20221;-59
2023/06/27 10:02:48;;;;;;;29.42;25.75;;;;;;;-141.02;57.54;74571.75;5134625;27;20192;-59
2023/06/27 10:05:15;;;;;;;29.05;25.83;;;;;;;-141.02;59.94;75067.88;5134476;27;20192;-59
2023/06/27 10:07:43;;;;;;;28.70;24.90;;;;;;;-141.02;55.53;72340.16;5134817;27;20196;-58
2023/06/27 10:10:11;;;;;;;28.30;24.38;;;;;;;-141.02;56.03;72588.06;5133211;27;20200;-64
2023/06/27 10:12:40;;;;;;;29.27;26.08;;;;;;;-141.02;54.43;71844.47;5134646;27;20276;-58
2023/06/27 10:15:10;;;;;;;29.42;26.23;;;;;;;-141.02;55.73;72835.97;5134284;27;20226;-59
2023/06/27 10:17:38;;;;;;;27.48;24.48;;;;;;;-141.02;56.38;73083.88;5134404;27;20228;-59
2023/06/27 10:20:08;;;;;;;27.85;24.83;;;;;;;-141.02;57.68;73083.88;5134266;27;20203;-59
2023/06/27 10:22:38;;;;;;;28.73;25.63;;;;;;;-141.02;57.37;74571.75;5134105;27;20681;-58
2023/06/27 10:25:07;;;;;;;34.33;30.92;;;;;;;-141.02;54.85;72092.31;5134446;27;20241;-58
2023/06/27 10:27:38;;;;;;;29.73;26.52;;;;;;;-141.02;55.95;70605.50;5133924;27;20266;-59
2023/06/27 10:30:13;;;;;;;29.73;26.52;;;;;;;-141.02;55.59;71348.81;5134328;27;20253;-58
2023/06/27 10:32:43;;;;;;;29.60;26.40;;;;;;;-141.02;57.82;70357.75;5133891;27;20703;-58
2023/06/27 10:35:12;;;;;;;28.65;25.55;;;;;;;-141.02;56.35;71101.03;5133865;27;20662;-59
2023/06/27 10:37:43;;;;;;;28.42;25.42;;;;;;;-141.02;57.16;69862.34;5133684;27;20235;-59
2023/06/27 10:40:12;;;;;;;28.60;25.60;;;;;;;-141.02;59.72;72340.16;5133658;27;20322;-59
2023/06/27 10:42:42;;;;;;;35.58;32.17;;;;;;;-141.02;55.00;70110.03;5133674;27;20618;-59
2023/06/27 10:45:12;;;;;;;27.90;24.10;;;;;;;-141.02;58.94;71596.63;5134022;27;20283;-66
2023/06/27 10:47:41;;;;;;;28.17;24.38;;;;;;;-141.02;59.41;70853.25;5134012;27;20196;-58
2023/06/27 10:50:13;;;;;;;27.45;24.45;;;;;;;-141.02;57.83;69862.34;5133627;27;20203;-58
2023/06/27 10:52:42;;;;;;;27.13;24.13;;;;;;;-141.02;61.12;70605.50;5133568;27;20193;-60
2023/06/27 10:55:22;;;;;;;28.52;25.42;;;;;;;-141.02;59.90;70110.03;5133832;27;20193;-58
2023/06/27 10:57:57;;;;;;;27.40;23.52;;;;;;;-141.02;61.00;69614.66;5133700;27;20315;-61
2023/06/27 11:00:28;;;;;;;26.25;23.05;;;;;;;-141.02;60.94;69862.34;5133764;27;20266;-59
2023/06/27 11:02:57;;;;;;;27.90;24.50;;;;;;;-141.02;62.21;71348.81;5133393;27;20222;-59
2023/06/27 11:05:44;;;;;;;27.13;23.80;;;;;;;-141.02;61.40;71101.03;5133349;27;20195;-67
2023/06/27 11:08:13;;;;;;;28.23;24.95;;;;;;;-141.02;63.40;69862.34;5133654;27;20599;-58
2023/06/27 11:10:50;;;;;;;27.55;23.60;;;;;;;-141.02;64.57;70357.75;5133217;27;20298;-59
2023/06/27 11:13:21;;;;;;;27.58;24.05;;;;;;;-141.02;65.59;70357.75;5133553;27;20184;-59
2023/06/27 11:15:51;;;;;;;27.90;24.52;;;;;;;-141.02;61.28;70357.75;5133466;27;20187;-59
2023/06/27 11:18:19;;;;;;;27.25;23.98;;;;;;;-141.02;61.73;69614.66;5133838;27;20214;-58
2023/06/27 11:20:47;;;;;;;28.20;23.98;;;;;;;-141.02;62.65;69119.34;5132775;27;20280;-58
2023/06/27 11:23:14;;;;;;;27.92;24.05;;;;;;;-141.02;58.83;69614.66;5133391;27;20245;-59
2023/06/27 11:25:43;;;;;;;28.15;23.85;;;;;;;-141.02;58.84;69119.34;5133395;27;20204;-58
2023/06/27 11:28:10;;;;;;;27.55;24.02;;;;;;;-141.02;61.92;71596.63;5133356;27;20199;-58
2023/06/27 11:30:38;;;;;;;27.73;23.92;;;;;;;-141.02;60.70;71348.81;5133258;27;20200;-59
2023/06/27 11:33:07;;;;;;;28.33;24.42;;;;;;;-141.02;56.18;67881.38;5133276;27;20280;-59
2023/06/27 11:35:35;;;;;;;27.08;23.92;;;;;;;-141.02;59.40;72588.06;5133184;28;20295;-58
2023/06/27 11:38:06;;;;;;;28.35;24.98;;;;;;;-141.02;55.74;70853.25;5132833;28;20813;-65
2023/06/27 11:40:33;;;;;;;28.13;24.00;;;;;;;-141.02;55.62;70357.75;5132906;28;20675;-59
2023/06/27 11:43:03;;;;;;;26.90;23.42;;;;;;;-141.02;57.08;70605.50;5132867;28;20691;-63
2023/06/27 11:45:31;;;;;;;29.00;24.95;;;;;;;-141.02;55.41;69614.66;5133241;28;20224;-67
2023/06/27 11:47:58;;;;;;;28.48;23.95;;;;;;;-141.02;54.37;68871.72;5132856;27;20227;-59